Weather at Spollens Airstrip

Public forecast

Using degrees Celsius for public forecast. Weather courtesy of forecast.io.

Closest aviation weather report (METAR) to Spollens Airstrip

Closest report is Casement Air Base, 38.7 nm (71.7 km) E.

2023/11/30 16:00 (retrieved 39 minutes ago)

EIME 301600Z 35006KT 330V040 9999 FEW020CB SCT050 03/01 Q1007

Closest aviation forecast (TAF) to Spollens Airstrip

Closest forecast is Dublin Airport, 46.2 nm (85.5 km) E.

2023/11/30 12:10 (retrieved 4 hours ago)

TAF EIDW 301100Z 3012/0112 06012KT 9999 FEW010 SCT020 BKN030 TEMPO 3012/3016 4000 -SHRAGS BECMG 3016/3018 03008KT BECMG 3018/3020 32008KT TEMPO 3022/0101 4000 -SHRAGS BKN014